createdAt,value
2019-06-26T20:37:27.249Z,29.90
2019-06-26T20:40:00.450Z,28.20
2019-06-26T20:42:31.634Z,26.70
2019-06-26T20:45:02.086Z,26.00
2019-06-26T20:47:33.112Z,25.70
2019-06-26T20:50:04.501Z,25.60
2019-06-26T20:52:35.421Z,25.40
2019-06-26T20:55:06.596Z,25.40
2019-06-26T20:57:37.284Z,25.30
2019-06-26T21:00:09.888Z,25.30
2019-06-26T21:02:41.793Z,25.30
2019-06-26T21:05:14.134Z,25.20
2019-06-26T21:07:44.433Z,25.20
2019-06-26T21:10:18.619Z,25.10
2019-06-26T21:12:48.725Z,25.10
2019-06-26T21:15:19.112Z,25.10
2019-06-26T21:17:49.777Z,25.10
2019-06-26T21:20:19.888Z,25.00
2019-06-26T21:22:49.886Z,24.90
2019-06-26T21:25:20.042Z,24.90
2019-06-26T21:27:50.511Z,24.90
2019-06-26T21:30:20.636Z,24.90
2019-06-26T21:32:50.851Z,24.80
2019-06-26T21:35:21.020Z,24.80
2019-06-26T21:37:51.116Z,24.80
2019-06-26T21:40:21.396Z,24.70
2019-06-26T21:42:51.513Z,24.80
2019-06-26T21:45:22.127Z,24.80
2019-06-26T21:47:52.800Z,24.80
2019-06-26T21:50:23.352Z,24.90
2019-06-26T21:52:54.660Z,24.80
2019-06-26T21:55:34.334Z,24.80
2019-06-26T21:58:16.288Z,24.70
2019-06-26T22:01:04.463Z,24.70
2019-06-26T22:03:52.413Z,24.70
2019-06-26T22:06:28.211Z,24.70
2019-06-26T22:09:07.713Z,24.70
2019-06-26T22:11:39.330Z,24.70
2019-06-26T22:14:09.513Z,24.60
2019-06-26T22:16:39.727Z,24.60
2019-06-26T22:19:10.221Z,24.60
2019-06-26T22:21:41.497Z,24.60
2019-06-26T22:24:12.594Z,24.70
2019-06-26T22:26:44.013Z,24.70
2019-06-26T22:29:14.892Z,24.60
2019-06-26T22:31:45.299Z,24.60
